Time;durP1;ratioP1;P1;durP2;ratioP2;P2;SDS_P1;SDS_P2;PMS_P1;PMS_P2;Temp;Humidity;BMP_temperature;BMP_pressure;BME280_temperature;BME280_humidity;BME280_pressure;Samples;Min_cycle;Max_cycle;Signal;HPM_P1;HPM_P2
2023/04/14 00:01:49;;;;;;;11.23;6.25;;;;;;;4.72;75.82;101044.59;7395390;19;20085;-69
2023/04/14 00:04:15;;;;;;;10.43;6.10;;;;;;;4.84;75.38;101043.94;7398630;19;20009;-70
2023/04/14 00:06:46;;;;;;;11.30;6.03;;;;;;;4.62;75.71;101045.16;7397661;19;20113;-71
2023/04/14 00:09:12;;;;;;;11.45;6.53;;;;;;;4.40;76.79;101033.13;7396432;19;20014;-71
2023/04/14 00:11:37;;;;;;;11.93;6.90;;;;;;;4.19;78.02;101048.22;7395589;19;20003;-71
2023/04/14 00:14:04;;;;;;;10.07;6.00;;;;;;;3.98;78.98;101042.25;7397650;19;20455;-71
2023/04/14 00:16:30;;;;;;;12.95;5.95;;;;;;;3.98;79.12;101042.25;7395529;19;19998;-69
2023/04/14 00:18:55;;;;;;;10.25;5.93;;;;;;;3.94;78.86;101038.06;7396514;19;19987;-70
2023/04/14 00:21:21;;;;;;;10.68;6.35;;;;;;;3.94;79.37;101043.34;7395841;19;20002;-71
2023/04/14 00:23:47;;;;;;;11.20;6.03;;;;;;;3.85;79.14;101047.25;7397201;19;20006;-69
2023/04/14 00:26:13;;;;;;;9.98;5.63;;;;;;;4.23;78.21;101051.56;7396376;19;19994;-69
2023/04/14 00:28:38;;;;;;;9.70;5.57;;;;;;;4.58;76.01;101055.00;7395414;19;20649;-68
2023/04/14 00:31:05;;;;;;;10.90;6.00;;;;;;;4.28;76.35;101049.53;7395537;19;20044;-75
2023/04/14 00:33:30;;;;;;;10.85;5.22;;;;;;;4.49;75.69;101053.69;7396501;19;20003;-73
2023/04/14 00:35:56;;;;;;;10.65;5.78;;;;;;;4.26;75.79;101060.13;7396828;19;20010;-73
2023/04/14 00:38:22;;;;;;;11.95;6.28;;;;;;;3.84;77.41;101065.72;7394601;19;20006;-73
2023/04/14 00:40:48;;;;;;;10.35;5.72;;;;;;;3.93;77.81;101067.94;7395730;19;20042;-73
2023/04/14 00:43:18;;;;;;;11.50;5.90;;;;;;;4.37;76.16;101067.47;7394756;19;20002;-72
2023/04/14 00:45:46;;;;;;;11.00;6.95;;;;;;;4.15;76.31;101067.72;7396885;19;20054;-73
2023/04/14 00:48:13;;;;;;;10.77;6.70;;;;;;;3.78;77.70;101064.25;7396751;19;20442;-74
2023/04/14 00:50:39;;;;;;;12.55;6.28;;;;;;;4.03;76.92;101070.97;7394806;19;20360;-72
2023/04/14 00:53:05;;;;;;;10.73;6.30;;;;;;;4.31;75.77;101071.25;7397569;19;20006;-73
2023/04/14 00:55:32;;;;;;;10.65;6.38;;;;;;;4.47;75.04;101073.13;7396200;19;20467;-74
2023/04/14 00:58:00;;;;;;;10.02;5.90;;;;;;;4.50;74.47;101079.06;7394446;19;20021;-74
2023/04/14 01:00:26;;;;;;;13.73;7.15;;;;;;;4.24;75.14;101074.28;7395460;19;20007;-74
2023/04/14 01:02:52;;;;;;;10.65;6.03;;;;;;;4.22;75.11;101079.63;7392859;19;20625;-73
2023/04/14 01:05:18;;;;;;;12.25;6.53;;;;;;;4.41;74.75;101078.66;7394607;19;20013;-73
2023/04/14 01:07:45;;;;;;;11.30;6.40;;;;;;;4.48;73.96;101077.44;7395520;19;20338;-73
2023/04/14 01:10:10;;;;;;;11.10;6.57;;;;;;;3.94;75.56;101079.28;7393456;19;20009;-74
2023/04/14 01:12:45;;;;;;;12.05;6.25;;;;;;;3.72;76.84;101089.94;7393872;19;20351;-74
2023/04/14 01:15:20;;;;;;;11.52;6.35;;;;;;;3.53;77.88;101089.97;7396072;19;20002;-69
2023/04/14 01:18:07;;;;;;;10.57;6.53;;;;;;;3.58;77.30;101090.63;7395863;19;20036;-74
2023/04/14 01:20:44;;;;;;;10.27;6.53;;;;;;;3.38;77.96;101086.31;7394333;19;20336;-75
2023/04/14 01:23:25;;;;;;;9.88;5.93;;;;;;;3.41;78.46;101093.19;7394866;19;20336;-75
2023/04/14 01:26:04;;;;;;;9.10;5.70;;;;;;;3.61;77.71;101090.50;7394813;19;20010;-75
2023/04/14 01:29:00;;;;;;;12.60;5.75;;;;;;;3.71;76.89;101090.88;7393600;19;20006;-74
2023/04/14 01:31:29;;;;;;;9.30;5.00;;;;;;;3.44;78.57;101093.06;7391644;19;20046;-74
2023/04/14 01:34:13;;;;;;;9.82;5.50;;;;;;;3.87;76.43;101090.06;7390964;19;20013;-74
2023/04/14 01:36:46;;;;;;;12.25;6.13;;;;;;;4.09;75.49;101092.53;7393762;19;19995;-75
2023/04/14 01:39:17;;;;;;;11.25;6.43;;;;;;;4.17;75.01;101086.88;7391209;19;20009;-74
2023/04/14 01:41:47;;;;;;;10.82;6.60;;;;;;;3.67;76.36;101098.06;7390248;19;20352;-75
2023/04/14 01:44:15;;;;;;;11.05;6.68;;;;;;;3.60;77.12;101101.91;7394620;19;20003;-75
2023/04/14 01:46:42;;;;;;;12.23;6.95;;;;;;;3.94;75.75;101098.53;7394955;19;20006;-75
2023/04/14 01:49:09;;;;;;;10.15;5.78;;;;;;;4.07;74.97;101102.28;7392079;19;20361;-76
2023/04/14 01:51:39;;;;;;;9.18;5.85;;;;;;;4.10;74.61;101091.63;7393053;19;20013;-74
2023/04/14 01:54:07;;;;;;;9.65;5.78;;;;;;;4.06;74.50;101097.06;7393667;19;19994;-74
2023/04/14 01:56:36;;;;;;;9.90;5.57;;;;;;;4.05;74.16;101098.00;7392508;19;20066;-73
2023/04/14 01:59:03;;;;;;;8.20;4.32;;;;;;;4.08;74.10;101093.47;7393861;19;19998;-73
2023/04/14 02:01:29;;;;;;;6.95;3.97;;;;;;;4.05;73.93;101100.63;7393441;19;20037;-72
2023/04/14 02:03:56;;;;;;;5.75;3.40;;;;;;;3.94;73.77;101106.41;7393801;19;20463;-71
2023/04/14 02:06:22;;;;;;;5.65;3.35;;;;;;;3.52;75.13;101098.78;7393689;19;20009;-71
2023/04/14 02:08:49;;;;;;;6.25;3.78;;;;;;;3.21;76.47;101100.22;7390676;19;20006;-71
2023/04/14 02:11:17;;;;;;;7.63;4.30;;;;;;;3.23;77.21;101098.38;7388301;19;20078;-74
2023/04/14 02:13:44;;;;;;;7.20;3.90;;;;;;;3.33;77.12;101101.41;7389740;19;20002;-75
2023/04/14 02:16:11;;;;;;;6.82;3.80;;;;;;;3.43;77.14;101104.50;7389442;19;20371;-75
2023/04/14 02:18:39;;;;;;;5.75;3.35;;;;;;;3.71;75.64;101104.88;7392325;19;20006;-74
2023/04/14 02:21:05;;;;;;;6.35;3.53;;;;;;;3.80;74.89;101101.81;7388987;19;19995;-74
2023/04/14 02:23:31;;;;;;;5.68;3.35;;;;;;;3.87;74.08;101110.22;7391041;19;20373;-74
2023/04/14 02:26:03;;;;;;;5.63;3.35;;;;;;;3.87;74.41;101105.81;7392807;19;20003;-74
2023/04/14 02:28:32;;;;;;;5.28;3.20;;;;;;;3.86;73.70;101108.53;7392647;19;20091;-74
2023/04/14 02:31:04;;;;;;;5.45;3.30;;;;;;;3.93;73.43;101107.34;7390329;19;20010;-73
2023/04/14 02:33:33;;;;;;;5.22;3.35;;;;;;;3.94;73.37;101106.41;7391628;19;20006;-74
2023/04/14 02:36:16;;;;;;;5.30;3.05;;;;;;;3.90;72.47;101109.25;7392072;19;20493;-74
2023/04/14 02:38:50;;;;;;;5.25;2.92;;;;;;;3.83;73.26;101106.06;7393106;19;19995;-74
2023/04/14 02:41:22;;;;;;;5.07;3.13;;;;;;;3.73;73.13;101112.69;7391777;19;20009;-74
2023/04/14 02:44:06;;;;;;;5.07;3.00;;;;;;;3.72;73.11;101124.09;7392460;19;20006;-75
2023/04/14 02:46:42;;;;;;;5.10;3.10;;;;;;;3.67;73.20;101121.72;7391679;19;19995;-74
2023/04/14 02:49:13;;;;;;;7.00;3.47;;;;;;;3.38;74.13;101121.31;7391306;19;20019;-75
2023/04/14 02:51:40;;;;;;;6.68;3.42;;;;;;;3.40;74.05;101121.22;7389637;19;20048;-75
2023/04/14 02:54:06;;;;;;;6.00;3.58;;;;;;;3.07;74.93;101124.44;7392355;19;20022;-74
2023/04/14 02:56:34;;;;;;;5.57;3.67;;;;;;;2.68;76.40;101126.22;7391800;19;20002;-74
2023/04/14 02:59:00;;;;;;;6.35;3.30;;;;;;;2.63;76.83;101123.81;7391507;19;20014;-74
2023/04/14 03:01:26;;;;;;;7.40;3.70;;;;;;;2.57;77.03;101124.91;7390766;19;20535;-74
2023/04/14 03:03:55;;;;;;;7.00;3.65;;;;;;;2.31;77.72;101128.66;7392561;19;20020;-74
2023/04/14 03:06:22;;;;;;;6.65;3.97;;;;;;;2.29;77.91;101132.25;7391138;19;20005;-74
2023/04/14 03:08:51;;;;;;;6.85;3.97;;;;;;;2.47;77.58;101128.00;7391657;19;20023;-75
2023/04/14 03:11:18;;;;;;;7.75;4.63;;;;;;;2.95;75.84;101127.63;7389108;19;19999;-74
2023/04/14 03:13:45;;;;;;;8.90;4.22;;;;;;;3.21;74.43;101131.72;7391594;19;19995;-75
2023/04/14 03:16:12;;;;;;;8.80;4.60;;;;;;;3.25;74.29;101133.28;7391580;19;20333;-75
2023/04/14 03:18:39;;;;;;;10.43;4.80;;;;;;;2.87;75.42;101127.13;7390923;19;19999;-75
2023/04/14 03:21:05;;;;;;;8.55;5.00;;;;;;;2.61;76.70;101142.22;7390191;19;20010;-75
2023/04/14 03:23:32;;;;;;;7.07;4.50;;;;;;;2.89;75.82;101152.38;7390077;19;20006;-75
2023/04/14 03:26:00;;;;;;;8.30;4.72;;;;;;;3.13;74.67;101136.47;7388932;19;20006;-74
2023/04/14 03:28:29;;;;;;;8.50;5.22;;;;;;;2.56;76.18;101138.09;7390847;19;20030;-74
2023/04/14 03:30:59;;;;;;;8.43;4.75;;;;;;;2.58;76.88;101131.88;7390219;19;20006;-73
2023/04/14 03:33:27;;;;;;;9.05;4.65;;;;;;;3.02;75.02;101139.56;7391803;19;20074;-73
2023/04/14 03:35:56;;;;;;;8.93;4.82;;;;;;;3.25;73.68;101140.31;7389700;19;20043;-68
2023/04/14 03:38:26;;;;;;;11.70;5.10;;;;;;;3.23;74.13;101145.63;7391008;19;20019;-67
2023/04/14 03:40:53;;;;;;;8.10;4.88;;;;;;;2.87;75.37;101148.97;7390451;19;20003;-68
2023/04/14 03:43:21;;;;;;;21.55;6.03;;;;;;;2.82;75.51;101148.31;7390723;19;20002;-77
2023/04/14 03:45:53;;;;;;;8.93;5.00;;;;;;;2.77;76.45;101152.03;7389109;19;20008;-76
2023/04/14 03:48:20;;;;;;;23.10;5.90;;;;;;;2.92;75.44;101146.13;7390405;19;20478;-77
2023/04/14 03:50:50;;;;;;;11.52;5.43;;;;;;;2.67;76.85;101148.13;7388638;19;20010;-73
2023/04/14 03:53:17;;;;;;;15.63;5.55;;;;;;;2.56;77.46;101148.59;7390958;19;20010;-67
2023/04/14 03:55:45;;;;;;;19.35;5.43;;;;;;;2.50;77.82;101154.06;7390582;19;20033;-68
2023/04/14 03:58:13;;;;;;;7.68;4.85;;;;;;;2.64;77.19;101156.97;7389557;19;19998;-68
2023/04/14 04:00:39;;;;;;;8.13;4.60;;;;;;;2.58;76.88;101158.09;7389253;19;20007;-69
2023/04/14 04:03:05;;;;;;;8.10;4.70;;;;;;;2.32;78.11;101163.56;7390319;19;20003;-68
2023/04/14 04:05:32;;;;;;;8.20;4.75;;;;;;;2.46;77.82;101160.38;7390689;19;20297;-69
2023/04/14 04:08:02;;;;;;;7.03;4.20;;;;;;;2.83;76.42;101157.88;7388935;19;20035;-68
2023/04/14 04:10:32;;;;;;;8.13;4.97;;;;;;;2.91;75.72;101160.19;7388144;19;20006;-68
2023/04/14 04:13:00;;;;;;;10.30;5.50;;;;;;;3.14;74.46;101167.03;7390606;19;19998;-68
2023/04/14 04:15:31;;;;;;;7.13;4.70;;;;;;;3.15;74.43;101163.47;7390538;19;20007;-69
2023/04/14 04:17:58;;;;;;;7.97;4.40;;;;;;;3.14;73.69;101167.03;7390083;19;20003;-69
2023/04/14 04:20:29;;;;;;;6.00;3.90;;;;;;;3.02;74.21;101164.97;7389127;19;20460;-69
2023/04/14 04:23:00;;;;;;;6.45;4.05;;;;;;;3.11;73.59;101156.66;7390509;19;20006;-69
2023/04/14 04:25:26;;;;;;;5.80;3.63;;;;;;;3.10;73.38;101161.06;7389479;19;19999;-69
2023/04/14 04:27:51;;;;;;;7.78;4.28;;;;;;;2.99;73.82;101158.06;7389850;19;19987;-69
2023/04/14 04:30:18;;;;;;;6.57;3.80;;;;;;;2.89;74.07;101164.66;7386423;19;20001;-69
2023/04/14 04:32:50;;;;;;;7.07;3.72;;;;;;;2.81;74.23;101164.13;7382660;19;20014;-74
2023/04/14 04:35:17;;;;;;;7.80;4.05;;;;;;;2.35;76.04;101168.66;7388272;19;20021;-74
2023/04/14 04:37:43;;;;;;;6.28;3.97;;;;;;;2.40;75.90;101171.97;7395417;19;20007;-75
2023/04/14 04:40:09;;;;;;;6.10;3.65;;;;;;;2.74;74.83;101173.19;7396951;19;20002;-74
2023/04/14 04:42:39;;;;;;;6.00;3.72;;;;;;;2.96;73.74;101179.22;7394325;19;20479;-74
2023/04/14 04:45:05;;;;;;;6.75;3.58;;;;;;;2.78;74.00;101182.63;7396163;19;20487;-74
2023/04/14 04:47:31;;;;;;;5.75;3.60;;;;;;;2.43;75.50;101190.22;7396240;19;20003;-73
2023/04/14 04:49:56;;;;;;;6.88;3.55;;;;;;;2.29;76.53;101187.28;7394739;19;20471;-73
2023/04/14 04:52:22;;;;;;;5.05;3.15;;;;;;;2.55;75.77;101187.06;7394706;19;20459;-73
2023/04/14 04:54:51;;;;;;;6.55;3.28;;;;;;;2.85;74.23;101189.31;7396117;19;19998;-72
2023/04/14 04:57:19;;;;;;;6.22;3.28;;;;;;;2.92;73.88;101182.88;7395988;19;19998;-72
2023/04/14 04:59:46;;;;;;;5.25;3.33;;;;;;;2.99;73.22;101192.19;7395669;19;20014;-73
2023/04/14 05:02:12;;;;;;;5.43;3.30;;;;;;;2.99;73.44;101184.31;7394047;19;19999;-73
2023/04/14 05:04:37;;;;;;;5.85;3.10;;;;;;;2.90;73.64;101187.34;7395501;19;20002;-73
2023/04/14 05:07:03;;;;;;;5.85;3.10;;;;;;;2.74;74.51;101181.91;7396169;19;20010;-69
2023/04/14 05:09:28;;;;;;;5.38;3.10;;;;;;;2.87;73.91;101184.84;7392758;19;20072;-69
2023/04/14 05:11:56;;;;;;;6.03;3.28;;;;;;;3.04;73.32;101179.72;7394692;19;20010;-69
2023/04/14 05:14:21;;;;;;;7.35;3.45;;;;;;;3.12;72.56;101182.03;7395872;19;20005;-69
2023/04/14 05:16:47;;;;;;;5.82;3.10;;;;;;;3.11;72.56;101181.16;7395783;19;20379;-69
2023/04/14 05:19:13;;;;;;;5.53;3.05;;;;;;;2.93;73.55;101181.13;7395084;19;20002;-68
2023/04/14 05:21:38;;;;;;;5.97;2.50;;;;;;;2.98;73.37;101181.75;7394525;19;20068;-70
2023/04/14 05:24:07;;;;;;;6.13;2.97;;;;;;;3.10;73.13;101186.47;7394833;19;19994;-70
2023/04/14 05:26:32;;;;;;;6.43;3.17;;;;;;;3.11;73.07;101188.16;7393495;19;19998;-71
2023/04/14 05:28:58;;;;;;;5.82;2.80;;;;;;;2.99;73.64;101194.81;7392507;19;20023;-73
2023/04/14 05:31:23;;;;;;;11.10;3.55;;;;;;;2.92;73.79;101193.38;7392316;19;20015;-71
2023/04/14 05:33:49;;;;;;;8.18;3.53;;;;;;;2.86;74.32;101196.28;7395622;19;19995;-71
2023/04/14 05:36:14;;;;;;;6.68;3.33;;;;;;;3.04;74.03;101190.22;7393817;19;19999;-71
2023/04/14 05:38:40;;;;;;;6.30;3.15;;;;;;;3.13;73.87;101195.06;7394979;19;20524;-71
2023/04/14 05:41:06;;;;;;;5.60;3.03;;;;;;;3.09;74.12;101195.28;7394711;19;20002;-71
2023/04/14 05:43:32;;;;;;;8.85;3.60;;;;;;;3.14;74.37;101199.38;7395282;19;20359;-71
2023/04/14 05:45:57;;;;;;;9.63;3.55;;;;;;;3.19;74.48;101201.84;7394740;19;20005;-71
2023/04/14 05:48:26;;;;;;;6.30;3.60;;;;;;;3.20;74.66;101202.69;7392042;19;20003;-71
2023/04/14 05:50:51;;;;;;;8.65;4.20;;;;;;;2.91;75.53;101198.69;7393017;19;20005;-71
2023/04/14 05:53:17;;;;;;;23.30;4.47;;;;;;;2.60;77.06;101202.59;7394257;19;19998;-71
2023/04/14 05:55:43;;;;;;;16.38;4.32;;;;;;;2.45;78.02;101203.25;7393988;19;19995;-71
2023/04/14 05:58:08;;;;;;;7.75;3.97;;;;;;;2.54;78.71;101206.34;7394145;19;20333;-71
2023/04/14 06:00:34;;;;;;;7.80;3.85;;;;;;;3.06;77.09;101208.53;7394391;19;19998;-71
2023/04/14 06:03:00;;;;;;;7.68;3.70;;;;;;;3.37;75.63;101201.00;7391130;19;20043;-71
2023/04/14 06:05:25;;;;;;;7.57;3.63;;;;;;;3.20;76.32;101205.31;7392227;19;19998;-70
2023/04/14 06:07:51;;;;;;;7.30;3.80;;;;;;;2.96;77.41;101200.22;7393968;19;20014;-71
2023/04/14 06:10:16;;;;;;;6.53;4.07;;;;;;;2.92;77.86;101203.00;7392767;19;20002;-70
2023/04/14 06:12:42;;;;;;;6.95;3.90;;;;;;;2.96;78.38;101207.22;7391876;19;20054;-70
2023/04/14 06:15:08;;;;;;;5.68;3.70;;;;;;;2.97;79.10;101208.94;7393677;19;19998;-70
2023/04/14 06:17:34;;;;;;;6.05;3.40;;;;;;;3.50;77.84;101213.59;7392763;19;20018;-69
2023/04/14 06:20:01;;;;;;;6.65;3.88;;;;;;;3.65;77.13;101206.75;7393339;19;20002;-69
2023/04/14 06:22:28;;;;;;;6.75;3.65;;;;;;;3.74;77.57;101212.47;7392494;19;19998;-70
2023/04/14 06:24:57;;;;;;;6.78;3.80;;;;;;;3.83;77.30;101203.28;7392349;19;20459;-69
2023/04/14 06:27:23;;;;;;;9.70;4.00;;;;;;;3.84;77.46;101203.25;7394071;19;20357;-69
2023/04/14 06:29:50;;;;;;;7.65;4.15;;;;;;;3.85;77.46;101204.09;7392398;19;20066;-69
2023/04/14 06:32:19;;;;;;;7.95;4.25;;;;;;;3.83;77.68;101200.66;7390045;19;20017;-69
2023/04/14 06:34:48;;;;;;;7.60;3.85;;;;;;;3.86;77.91;101197.91;7392465;19;20151;-69
2023/04/14 06:37:15;;;;;;;5.80;3.65;;;;;;;3.97;78.20;101197.44;7393452;19;20014;-71
2023/04/14 06:39:40;;;;;;;8.13;4.00;;;;;;;4.10;77.91;101188.00;7394557;19;20003;-69
2023/04/14 06:42:06;;;;;;;8.45;4.28;;;;;;;4.20;77.98;101194.53;7389915;19;20003;-69
2023/04/14 06:44:32;;;;;;;9.07;4.53;;;;;;;4.37;77.43;101180.56;7393625;19;20370;-70
2023/04/14 06:46:58;;;;;;;8.20;3.83;;;;;;;4.61;77.35;101194.28;7392878;19;20003;-68
2023/04/14 06:49:23;;;;;;;9.27;4.03;;;;;;;4.77;77.32;101197.84;7390988;19;19991;-70
2023/04/14 06:51:49;;;;;;;7.43;4.50;;;;;;;5.02;77.25;101189.56;7390484;19;20066;-69
2023/04/14 06:54:15;;;;;;;9.75;4.78;;;;;;;5.21;76.73;101199.09;7392471;19;20011;-68
2023/04/14 06:56:40;;;;;;;9.75;5.28;;;;;;;5.26;76.97;101189.19;7392433;19;20009;-68
2023/04/14 06:59:06;;;;;;;9.95;5.40;;;;;;;5.23;77.35;101184.94;7389992;19;20080;-69
2023/04/14 07:01:32;;;;;;;8.73;5.13;;;;;;;5.24;77.73;101189.25;7393195;19;19999;-69
2023/04/14 07:03:57;;;;;;;8.60;5.13;;;;;;;5.35;78.25;101186.06;7391543;19;20026;-70
2023/04/14 07:06:23;;;;;;;8.82;5.20;;;;;;;5.45;77.91;101189.06;7391397;19;20003;-70
2023/04/14 07:08:49;;;;;;;8.48;4.82;;;;;;;5.59;77.80;101189.16;7391567;19;19998;-70
2023/04/14 07:11:15;;;;;;;9.77;5.35;;;;;;;5.73;77.47;101189.25;7391592;19;20010;-70
2023/04/14 07:13:40;;;;;;;10.48;5.90;;;;;;;5.80;77.48;101180.09;7391335;19;19995;-69
2023/04/14 07:16:07;;;;;;;11.73;5.13;;;;;;;5.96;77.09;101185.34;7389137;19;19997;-69
2023/04/14 07:18:33;;;;;;;10.23;5.60;;;;;;;6.09;77.12;101179.38;7389085;19;20458;-69
2023/04/14 07:20:59;;;;;;;10.68;5.65;;;;;;;6.12;77.08;101185.34;7389310;19;20047;-70
2023/04/14 07:23:26;;;;;;;10.88;5.75;;;;;;;6.18;77.39;101189.44;7393678;19;20011;-70
2023/04/14 07:25:53;;;;;;;10.13;5.13;;;;;;;6.26;77.50;101182.78;7394028;19;20094;-71
2023/04/14 07:28:20;;;;;;;11.40;5.15;;;;;;;6.35;77.15;101185.81;7394236;19;20021;-71
2023/04/14 07:30:47;;;;;;;9.80;5.50;;;;;;;6.41;77.01;101185.50;7392490;19;20379;-71
2023/04/14 07:33:17;;;;;;;10.80;5.47;;;;;;;6.48;76.97;101184.22;7393390;19;20105;-71
2023/04/14 07:35:52;;;;;;;10.27;5.40;;;;;;;6.53;76.87;101184.78;7392134;19;20006;-71
2023/04/14 07:38:18;;;;;;;9.50;4.97;;;;;;;6.63;76.66;101185.97;7394350;19;20018;-72
2023/04/14 07:40:44;;;;;;;10.73;5.22;;;;;;;6.67;76.66;101184.00;7393635;19;20007;-72
2023/04/14 07:43:10;;;;;;;9.60;4.90;;;;;;;6.79;76.28;101183.25;7395158;19;20002;-72
2023/04/14 07:45:38;;;;;;;10.65;4.40;;;;;;;6.91;75.48;101182.53;7393541;19;20011;-72
2023/04/14 07:48:04;;;;;;;10.27;4.78;;;;;;;6.99;75.30;101188.19;7394668;19;20086;-72
2023/04/14 07:50:30;;;;;;;9.48;4.60;;;;;;;7.08;75.11;101196.50;7392241;19;20021;-72
2023/04/14 07:52:55;;;;;;;9.30;4.47;;;;;;;7.15;75.20;101192.56;7392281;19;20010;-71
2023/04/14 07:55:21;;;;;;;9.50;3.60;;;;;;;7.28;74.50;101189.09;7391943;19;20547;-71
2023/04/14 07:57:47;;;;;;;8.85;3.70;;;;;;;7.39;73.95;101185.78;7394572;19;20014;-71
2023/04/14 08:00:13;;;;;;;7.18;3.17;;;;;;;7.44;73.41;101188.97;7391874;19;20494;-71
2023/04/14 08:02:39;;;;;;;7.32;3.17;;;;;;;7.53;72.68;101179.63;7390518;19;20475;-71
2023/04/14 08:05:05;;;;;;;7.20;2.63;;;;;;;7.59;72.05;101186.34;7393488;19;20032;-70
2023/04/14 08:07:31;;;;;;;7.18;3.10;;;;;;;7.69;71.77;101182.16;7394792;19;19999;-71
2023/04/14 08:09:57;;;;;;;7.68;2.58;;;;;;;7.77;71.39;101179.91;7392074;19;20014;-72
2023/04/14 08:12:25;;;;;;;8.20;2.80;;;;;;;7.87;71.10;101181.00;7396569;19;20023;-71
2023/04/14 08:14:52;;;;;;;6.47;2.63;;;;;;;7.93;70.72;101183.25;7400499;19;20142;-73
2023/04/14 08:17:18;;;;;;;6.70;2.40;;;;;;;8.01;70.25;101177.47;7400574;19;19999;-73
2023/04/14 08:19:44;;;;;;;7.00;2.58;;;;;;;8.08;70.60;101181.41;7397850;19;20034;-71
2023/04/14 08:22:09;;;;;;;7.82;2.50;;;;;;;8.13;69.92;101175.81;7399212;19;20010;-72
2023/04/14 08:24:35;;;;;;;6.43;2.30;;;;;;;8.17;69.47;101174.66;7399718;19;20446;-72
2023/04/14 08:27:01;;;;;;;6.30;2.30;;;;;;;8.21;69.83;101179.66;7398628;19;20006;-72
2023/04/14 08:29:27;;;;;;;7.35;2.30;;;;;;;8.30;69.67;101183.53;7398972;19;20484;-71
2023/04/14 08:31:53;;;;;;;8.18;2.90;;;;;;;8.34;69.09;101179.75;7398082;19;20371;-72
2023/04/14 08:34:18;;;;;;;8.23;2.47;;;;;;;8.42;69.16;101177.44;7398475;19;20003;-72
2023/04/14 08:36:45;;;;;;;5.80;2.65;;;;;;;8.48;68.43;101182.31;7400651;19;20024;-72
2023/04/14 08:39:10;;;;;;;10.13;2.90;;;;;;;8.50;68.48;101179.59;7399583;19;20002;-72
2023/04/14 08:41:45;;;;;;;6.97;2.65;;;;;;;8.53;68.30;101182.03;7398977;19;20764;-73
2023/04/14 08:44:10;;;;;;;8.18;2.90;;;;;;;8.57;68.40;101187.94;7398590;19;20061;-71
2023/04/14 08:46:36;;;;;;;6.47;2.20;;;;;;;8.60;67.98;101187.75;7398587;19;19995;-71
2023/04/14 08:49:04;;;;;;;7.35;2.40;;;;;;;8.70;67.58;101180.88;7398889;19;20109;-71
2023/04/14 08:51:42;;;;;;;8.50;2.45;;;;;;;8.80;66.94;101184.63;7398793;19;20010;-72
2023/04/14 08:54:09;;;;;;;5.60;2.17;;;;;;;8.82;67.11;101184.50;7397554;19;20006;-72
2023/04/14 08:56:40;;;;;;;6.53;2.30;;;;;;;8.89;66.98;101180.50;7399501;19;20005;-72
2023/04/14 08:59:07;;;;;;;5.63;2.03;;;;;;;8.88;66.54;101174.34;7398870;19;20037;-72
2023/04/14 09:01:35;;;;;;;6.78;2.22;;;;;;;8.98;66.23;101177.19;7396543;19;20609;-71
2023/04/14 09:04:04;;;;;;;7.57;1.80;;;;;;;9.04;65.50;101176.78;7399946;19;20014;-71
2023/04/14 09:06:33;;;;;;;4.72;1.58;;;;;;;9.05;65.05;101175.00;7397299;19;20010;-73
2023/04/14 09:29:05;;;;;;;9.88;2.47;;;;;;;9.64;62.13;101169.97;6916695;19;9934701;-55
2023/04/14 09:31:31;;;;;;;6.18;1.85;;;;;;;9.49;61.76;101165.75;7429190;19;20593;-55
2023/04/14 09:33:57;;;;;;;8.63;2.15;;;;;;;9.49;61.19;101168.41;7426893;19;19998;-56
2023/04/14 09:36:27;;;;;;;7.22;1.83;;;;;;;9.57;61.16;101166.88;7427638;19;20030;-57
2023/04/14 09:38:53;;;;;;;7.97;2.00;;;;;;;9.65;60.90;101166.34;7424262;19;20434;-56
2023/04/14 09:41:21;;;;;;;9.82;2.38;;;;;;;9.70;60.91;101173.00;7426018;19;20014;-56
2023/04/14 09:43:54;;;;;;;7.60;2.03;;;;;;;9.61;61.92;101168.38;7426878;19;19994;-58
2023/04/14 09:46:20;;;;;;;6.75;1.80;;;;;;;9.65;62.58;101167.19;7426041;19;20338;-57
2023/04/14 09:48:50;;;;;;;9.05;1.70;;;;;;;9.77;61.47;101173.41;7422237;19;20014;-57
2023/04/14 09:51:15;;;;;;;6.28;1.92;;;;;;;9.79;60.87;101173.28;7424866;19;20663;-58
2023/04/14 09:53:41;;;;;;;10.48;2.13;;;;;;;9.84;59.93;101163.25;7431292;19;20015;-58
2023/04/14 09:56:09;;;;;;;6.40;1.70;;;;;;;9.76;60.81;101169.06;7424622;19;19995;-57
2023/04/14 09:58:39;;;;;;;6.28;1.85;;;;;;;9.83;61.20;101164.16;7426113;19;20009;-57
2023/04/14 10:01:20;;;;;;;8.80;2.42;;;;;;;9.95;61.08;101166.81;7426407;19;19998;-58
2023/04/14 10:03:47;;;;;;;7.13;1.70;;;;;;;9.94;60.90;101165.13;7427250;19;19994;-59
2023/04/14 10:06:13;;;;;;;8.15;2.00;;;;;;;9.93;60.68;101163.41;7423748;19;20010;-56
2023/04/14 10:08:40;;;;;;;7.28;1.75;;;;;;;10.02;60.40;101161.03;7421671;19;20478;-56
2023/04/14 10:11:41;;;;;;;10.13;1.83;;;;;;;9.96;58.99;101162.34;7426950;19;20005;-55
2023/04/14 10:14:07;;;;;;;9.57;1.83;;;;;;;9.84;61.32;101160.59;7424087;19;20032;-58
2023/04/14 10:16:33;;;;;;;5.60;1.30;;;;;;;9.91;60.89;101154.72;7424301;19;20002;-57
2023/04/14 10:18:58;;;;;;;7.70;1.50;;;;;;;9.86;60.87;101156.00;7426168;19;20001;-57
2023/04/14 10:21:26;;;;;;;6.82;1.50;;;;;;;9.82;60.30;101151.84;7425186;19;20017;-56
2023/04/14 10:23:55;;;;;;;9.98;1.65;;;;;;;9.78;60.05;101156.53;7426954;19;20019;-57
2023/04/14 10:26:21;;;;;;;10.85;2.03;;;;;;;9.77;59.58;101156.66;7424164;19;20065;-57
2023/04/14 10:28:50;;;;;;;6.70;1.67;;;;;;;9.76;58.97;101154.97;7423362;19;20031;-57
2023/04/14 10:31:30;;;;;;;6.18;1.35;;;;;;;9.86;58.29;101146.22;7424849;19;20022;-58
2023/04/14 10:33:56;;;;;;;5.85;1.30;;;;;;;10.06;58.15;101143.94;7425766;19;20029;-58
2023/04/14 10:36:24;;;;;;;5.32;1.38;;;;;;;10.11;56.49;101136.47;7423561;19;20524;-58
2023/04/14 10:38:57;;;;;;;8.75;1.65;;;;;;;10.05;55.45;101128.97;7413188;19;20010;-58
2023/04/14 10:41:23;;;;;;;6.30;1.30;;;;;;;9.97;55.82;101129.53;7395867;19;20003;-57
2023/04/14 10:43:48;;;;;;;6.65;1.40;;;;;;;10.05;56.21;101128.97;7395964;19;20481;-57
2023/04/14 10:46:14;;;;;;;6.22;1.73;;;;;;;10.24;56.30;101129.28;7396379;19;19998;-57
2023/04/14 10:48:44;;;;;;;7.38;1.63;;;;;;;10.12;55.66;101124.91;7393549;19;20178;-57
2023/04/14 10:53:12;;;;;;;6.88;1.55;;;;;;;12.08;55.40;101110.16;6775660;19;9956875;-56
2023/04/14 10:55:47;;;;;;;4.75;1.33;;;;;;;12.18;55.33;101116.50;7402805;19;20022;-56
2023/04/14 10:58:21;;;;;;;8.70;1.60;;;;;;;12.26;54.10;101119.41;7427310;19;20002;-56
2023/04/14 11:00:46;;;;;;;5.95;1.35;;;;;;;12.30;54.46;101122.69;7426155;19;20335;-56
2023/04/14 11:03:16;;;;;;;4.47;1.23;;;;;;;12.22;53.31;101107.31;7425245;19;20465;-56
2023/04/14 11:05:44;;;;;;;6.15;1.50;;;;;;;12.30;52.86;101102.28;7427152;19;19994;-55
2023/04/14 11:08:36;;;;;;;7.72;1.35;;;;;;;12.42;51.67;101105.81;7427166;19;20002;-56
2023/04/14 11:11:03;;;;;;;7.57;1.45;;;;;;;12.30;52.52;101107.59;7424791;19;20032;-56
2023/04/14 11:13:30;;;;;;;8.23;1.55;;;;;;;12.25;51.74;101100.91;7424890;19;20036;-56
2023/04/14 11:16:09;;;;;;;7.97;1.50;;;;;;;12.37;50.44;101098.22;7424388;19;20493;-57
2023/04/14 11:18:44;;;;;;;4.97;1.10;;;;;;;12.55;50.55;101097.75;7427540;19;20002;-56
2023/04/14 11:21:14;;;;;;;6.47;1.65;;;;;;;12.78;49.06;101104.81;7424125;19;20022;-56
2023/04/14 11:23:41;;;;;;;6.00;1.10;;;;;;;12.86;48.81;101107.72;7426426;19;20005;-56
2023/04/14 11:26:08;;;;;;;4.95;1.63;;;;;;;12.99;49.03;101106.78;7425459;19;20510;-54
2023/04/14 11:28:36;;;;;;;7.90;1.67;;;;;;;12.98;49.57;101105.94;7425979;19;19998;-55
2023/04/14 11:31:04;;;;;;;5.05;1.55;;;;;;;12.86;49.46;101104.22;7423259;19;20040;-57
2023/04/14 11:33:33;;;;;;;5.90;1.48;;;;;;;12.89;49.49;101102.16;7426783;19;20021;-56
2023/04/14 11:36:00;;;;;;;11.52;1.58;;;;;;;12.96;49.09;101089.22;7426006;19;20002;-56
2023/04/14 11:38:26;;;;;;;8.70;1.83;;;;;;;12.96;49.10;101085.75;7425647;19;19998;-56
2023/04/14 11:41:00;;;;;;;5.47;1.40;;;;;;;13.03;48.06;101090.44;7423953;19;20005;-56
2023/04/14 11:43:29;;;;;;;7.22;1.52;;;;;;;13.28;48.38;101088.53;7425966;19;20025;-54
2023/04/14 11:45:56;;;;;;;5.63;1.50;;;;;;;13.26;48.10;101088.66;7423939;19;20479;-56
2023/04/14 11:48:22;;;;;;;7.07;1.60;;;;;;;13.47;48.59;101085.25;7425769;19;20070;-56
2023/04/14 11:50:48;;;;;;;7.15;1.70;;;;;;;13.58;47.72;101075.44;7422830;19;20011;-57
2023/04/14 11:53:17;;;;;;;8.25;1.75;;;;;;;13.48;47.22;101073.66;7425472;19;19998;-56
2023/04/14 11:55:45;;;;;;;5.90;1.88;;;;;;;13.47;48.46;101074.59;7423824;19;20002;-56